sensor_id;sensor_type;location;lat;lon;timestamp;temperature;humidity
17346;DHT22;8790;53.590;10.002;2023-03-01T00:01:38;2.80;99.90
17346;DHT22;8790;53.590;10.002;2023-03-01T00:04:10;2.80;99.90
17346;DHT22;8790;53.590;10.002;2023-03-01T00:06:43;2.80;99.90
17346;DHT22;8790;53.590;10.002;2023-03-01T00:09:16;2.80;99.90
17346;DHT22;8790;53.590;10.002;2023-03-01T00:11:49;2.90;99.90
17346;DHT22;8790;53.590;10.002;2023-03-01T00:14:20;2.90;99.90
17346;DHT22;8790;53.590;10.002;2023-03-01T00:16:52;3.10;99.90
17346;DHT22;8790;53.590;10.002;2023-03-01T00:19:24;2.90;99.90
17346;DHT22;8790;53.590;10.002;2023-03-01T00:21:57;2.90;99.90
17346;DHT22;8790;53.590;10.002;2023-03-01T00:24:29;2.80;99.90
17346;DHT22;8790;53.590;10.002;2023-03-01T00:27:01;2.90;99.90
17346;DHT22;8790;53.590;10.002;2023-03-01T00:29:33;2.90;99.90
17346;DHT22;8790;53.590;10.002;2023-03-01T00:32:05;2.80;99.90
17346;DHT22;8790;53.590;10.002;2023-03-01T00:34:36;2.80;99.90
17346;DHT22;8790;53.590;10.002;2023-03-01T00:37:09;2.70;99.90
17346;DHT22;8790;53.590;10.002;2023-03-01T00:39:41;2.70;99.90
17346;DHT22;8790;53.590;10.002;2023-03-01T00:42:13;2.80;99.90
17346;DHT22;8790;53.590;10.002;2023-03-01T00:44:45;2.70;99.90
17346;DHT22;8790;53.590;10.002;2023-03-01T00:47:17;2.70;99.90
17346;DHT22;8790;53.590;10.002;2023-03-01T00:49:49;2.80;99.90
17346;DHT22;8790;53.590;10.002;2023-03-01T00:52:22;2.80;99.90
17346;DHT22;8790;53.590;10.002;2023-03-01T00:54:54;2.70;99.90
17346;DHT22;8790;53.590;10.002;2023-03-01T00:57:26;2.60;99.90
17346;DHT22;8790;53.590;10.002;2023-03-01T00:59:57;2.60;99.90
17346;DHT22;8790;53.590;10.002;2023-03-01T01:02:31;2.60;99.90
17346;DHT22;8790;53.590;10.002;2023-03-01T01:05:04;2.50;99.90
17346;DHT22;8790;53.590;10.002;2023-03-01T01:07:38;2.50;99.90
17346;DHT22;8790;53.590;10.002;2023-03-01T01:10:10;2.50;99.90
17346;DHT22;8790;53.590;10.002;2023-03-01T01:12:47;2.60;99.90
17346;DHT22;8790;53.590;10.002;2023-03-01T01:15:19;2.60;99.90
17346;DHT22;8790;53.590;10.002;2023-03-01T01:17:51;2.60;99.90
17346;DHT22;8790;53.590;10.002;2023-03-01T01:20:23;2.50;99.90
17346;DHT22;8790;53.590;10.002;2023-03-01T01:22:56;2.50;99.90
17346;DHT22;8790;53.590;10.002;2023-03-01T01:25:28;2.50;99.90
17346;DHT22;8790;53.590;10.002;2023-03-01T01:27:59;2.50;99.90
17346;DHT22;8790;53.590;10.002;2023-03-01T01:30:31;2.50;99.90
17346;DHT22;8790;53.590;10.002;2023-03-01T01:33:03;2.50;99.90
17346;DHT22;8790;53.590;10.002;2023-03-01T01:35:35;2.50;99.90
17346;DHT22;8790;53.590;10.002;2023-03-01T01:38:08;2.50;99.90
17346;DHT22;8790;53.590;10.002;2023-03-01T01:40:43;2.50;99.90
17346;DHT22;8790;53.590;10.002;2023-03-01T01:43:19;2.50;99.90
17346;DHT22;8790;53.590;10.002;2023-03-01T01:45:53;2.60;99.90
17346;DHT22;8790;53.590;10.002;2023-03-01T01:48:34;2.60;99.90
17346;DHT22;8790;53.590;10.002;2023-03-01T01:51:13;2.50;99.90
17346;DHT22;8790;53.590;10.002;2023-03-01T01:53:53;2.50;99.90
17346;DHT22;8790;53.590;10.002;2023-03-01T01:56:27;2.50;99.90
17346;DHT22;8790;53.590;10.002;2023-03-01T01:59:01;2.60;99.90
17346;DHT22;8790;53.590;10.002;2023-03-01T02:01:34;2.70;99.90
17346;DHT22;8790;53.590;10.002;2023-03-01T02:04:06;2.60;99.90
17346;DHT22;8790;53.590;10.002;2023-03-01T02:06:41;2.60;99.90
17346;DHT22;8790;53.590;10.002;2023-03-01T02:09:15;2.50;99.90
17346;DHT22;8790;53.590;10.002;2023-03-01T02:11:48;2.50;99.90
17346;DHT22;8790;53.590;10.002;2023-03-01T02:14:20;2.60;99.90
17346;DHT22;8790;53.590;10.002;2023-03-01T02:16:52;2.50;99.90
17346;DHT22;8790;53.590;10.002;2023-03-01T02:19:35;2.50;99.90
17346;DHT22;8790;53.590;10.002;2023-03-01T02:22:15;2.50;99.90
17346;DHT22;8790;53.590;10.002;2023-03-01T02:25:00;2.50;99.90
17346;DHT22;8790;53.590;10.002;2023-03-01T02:27:40;2.50;99.90
17346;DHT22;8790;53.590;10.002;2023-03-01T02:30:15;2.70;99.90
17346;DHT22;8790;53.590;10.002;2023-03-01T02:32:49;2.60;99.90
17346;DHT22;8790;53.590;10.002;2023-03-01T02:35:21;2.80;99.90
17346;DHT22;8790;53.590;10.002;2023-03-01T02:37:53;2.80;99.90
17346;DHT22;8790;53.590;10.002;2023-03-01T02:40:28;2.70;99.90
17346;DHT22;8790;53.590;10.002;2023-03-01T02:43:00;2.80;99.90
17346;DHT22;8790;53.590;10.002;2023-03-01T02:45:37;2.90;99.90
17346;DHT22;8790;53.590;10.002;2023-03-01T02:48:09;3.00;99.90
17346;DHT22;8790;53.590;10.002;2023-03-01T02:50:52;3.00;99.90
17346;DHT22;8790;53.590;10.002;2023-03-01T02:53:32;2.90;99.90
17346;DHT22;8790;53.590;10.002;2023-03-01T02:56:07;2.90;99.90
17346;DHT22;8790;53.590;10.002;2023-03-01T02:58:44;2.90;99.90
17346;DHT22;8790;53.590;10.002;2023-03-01T03:01:22;3.00;99.90
17346;DHT22;8790;53.590;10.002;2023-03-01T03:04:08;3.00;99.90
17346;DHT22;8790;53.590;10.002;2023-03-01T03:06:41;3.10;99.90
17346;DHT22;8790;53.590;10.002;2023-03-01T03:09:15;3.10;99.90
17346;DHT22;8790;53.590;10.002;2023-03-01T03:11:47;3.00;99.90
17346;DHT22;8790;53.590;10.002;2023-03-01T03:14:19;2.90;99.90
17346;DHT22;8790;53.590;10.002;2023-03-01T03:16:54;2.80;99.90
17346;DHT22;8790;53.590;10.002;2023-03-01T03:19:26;2.90;99.90
17346;DHT22;8790;53.590;10.002;2023-03-01T03:21:57;3.00;99.90
17346;DHT22;8790;53.590;10.002;2023-03-01T03:24:29;3.10;99.90
17346;DHT22;8790;53.590;10.002;2023-03-01T03:27:08;3.10;99.90
17346;DHT22;8790;53.590;10.002;2023-03-01T03:29:40;3.10;99.90
17346;DHT22;8790;53.590;10.002;2023-03-01T03:32:13;3.10;99.90
17346;DHT22;8790;53.590;10.002;2023-03-01T03:34:45;3.10;99.90
17346;DHT22;8790;53.590;10.002;2023-03-01T03:37:17;3.10;99.90
17346;DHT22;8790;53.590;10.002;2023-03-01T03:40:03;3.10;99.90
17346;DHT22;8790;53.590;10.002;2023-03-01T03:42:45;3.10;99.90
17346;DHT22;8790;53.590;10.002;2023-03-01T03:45:17;3.20;99.90
17346;DHT22;8790;53.590;10.002;2023-03-01T03:47:51;3.20;99.90
17346;DHT22;8790;53.590;10.002;2023-03-01T03:50:22;3.10;99.90
17346;DHT22;8790;53.590;10.002;2023-03-01T03:52:54;3.10;99.90
17346;DHT22;8790;53.590;10.002;2023-03-01T03:55:26;3.10;99.90
17346;DHT22;8790;53.590;10.002;2023-03-01T03:58:02;3.20;99.90
17346;DHT22;8790;53.590;10.002;2023-03-01T04:00:39;3.20;99.90
17346;DHT22;8790;53.590;10.002;2023-03-01T04:03:14;3.20;99.90
17346;DHT22;8790;53.590;10.002;2023-03-01T04:05:47;3.10;99.90
17346;DHT22;8790;53.590;10.002;2023-03-01T04:08:22;3.10;99.90
17346;DHT22;8790;53.590;10.002;2023-03-01T04:10:58;3.10;99.90
17346;DHT22;8790;53.590;10.002;2023-03-01T04:13:30;3.30;99.90
17346;DHT22;8790;53.590;10.002;2023-03-01T04:16:03;3.20;99.90
17346;DHT22;8790;53.590;10.002;2023-03-01T04:18:36;3.10;99.90
17346;DHT22;8790;53.590;10.002;2023-03-01T04:21:08;3.10;99.90
17346;DHT22;8790;53.590;10.002;2023-03-01T04:23:40;3.20;99.90
17346;DHT22;8790;53.590;10.002;2023-03-01T04:26:12;3.30;99.90
17346;DHT22;8790;53.590;10.002;2023-03-01T04:28:44;3.30;99.90
17346;DHT22;8790;53.590;10.002;2023-03-01T04:31:19;3.40;99.90
17346;DHT22;8790;53.590;10.002;2023-03-01T04:33:54;3.40;99.90
17346;DHT22;8790;53.590;10.002;2023-03-01T04:36:28;3.40;99.90
17346;DHT22;8790;53.590;10.002;2023-03-01T04:39:00;3.30;99.90
17346;DHT22;8790;53.590;10.002;2023-03-01T04:41:42;3.20;99.90
17346;DHT22;8790;53.590;10.002;2023-03-01T04:44:14;3.30;99.90
17346;DHT22;8790;53.590;10.002;2023-03-01T04:46:48;3.40;99.90
17346;DHT22;8790;53.590;10.002;2023-03-01T04:49:21;3.50;99.90
17346;DHT22;8790;53.590;10.002;2023-03-01T04:51:53;3.40;99.90
17346;DHT22;8790;53.590;10.002;2023-03-01T04:54:25;3.50;99.90
17346;DHT22;8790;53.590;10.002;2023-03-01T04:56:57;3.60;99.90
17346;DHT22;8790;53.590;10.002;2023-03-01T04:59:29;3.60;99.90
17346;DHT22;8790;53.590;10.002;2023-03-01T05:02:00;3.70;99.90
17346;DHT22;8790;53.590;10.002;2023-03-01T05:04:33;3.70;99.90
17346;DHT22;8790;53.590;10.002;2023-03-01T05:07:05;3.80;99.90
17346;DHT22;8790;53.590;10.002;2023-03-01T05:09:37;3.70;99.90
17346;DHT22;8790;53.590;10.002;2023-03-01T05:12:09;3.60;99.90
17346;DHT22;8790;53.590;10.002;2023-03-01T05:14:41;3.60;99.90
17346;DHT22;8790;53.590;10.002;2023-03-01T05:17:13;3.60;99.90
17346;DHT22;8790;53.590;10.002;2023-03-01T05:19:46;3.70;99.90
17346;DHT22;8790;53.590;10.002;2023-03-01T05:22:18;3.80;99.90
17346;DHT22;8790;53.590;10.002;2023-03-01T05:24:49;3.80;99.90
17346;DHT22;8790;53.590;10.002;2023-03-01T05:27:21;3.90;99.90
17346;DHT22;8790;53.590;10.002;2023-03-01T05:29:53;3.80;99.90
17346;DHT22;8790;53.590;10.002;2023-03-01T05:32:25;3.90;99.90
17346;DHT22;8790;53.590;10.002;2023-03-01T05:34:58;4.00;99.90
17346;DHT22;8790;53.590;10.002;2023-03-01T05:37:30;4.00;99.90
17346;DHT22;8790;53.590;10.002;2023-03-01T05:40:02;3.90;99.90
17346;DHT22;8790;53.590;10.002;2023-03-01T05:42:35;4.00;99.90
17346;DHT22;8790;53.590;10.002;2023-03-01T05:45:08;3.90;99.90
17346;DHT22;8790;53.590;10.002;2023-03-01T05:47:41;4.00;99.90
17346;DHT22;8790;53.590;10.002;2023-03-01T05:50:17;4.00;99.90
17346;DHT22;8790;53.590;10.002;2023-03-01T05:52:52;4.10;99.90
17346;DHT22;8790;53.590;10.002;2023-03-01T05:55:24;4.00;99.90
17346;DHT22;8790;53.590;10.002;2023-03-01T05:57:58;3.80;99.90
17346;DHT22;8790;53.590;10.002;2023-03-01T06:00:30;3.80;99.90
17346;DHT22;8790;53.590;10.002;2023-03-01T06:03:03;3.70;99.90
17346;DHT22;8790;53.590;10.002;2023-03-01T06:05:36;3.80;99.90
17346;DHT22;8790;53.590;10.002;2023-03-01T06:08:09;3.90;99.90
17346;DHT22;8790;53.590;10.002;2023-03-01T06:10:41;4.00;99.90
17346;DHT22;8790;53.590;10.002;2023-03-01T06:13:13;3.90;99.90
17346;DHT22;8790;53.590;10.002;2023-03-01T06:15:44;3.70;99.90
17346;DHT22;8790;53.590;10.002;2023-03-01T06:18:16;3.80;99.90
17346;DHT22;8790;53.590;10.002;2023-03-01T06:20:54;3.80;99.90
17346;DHT22;8790;53.590;10.002;2023-03-01T06:23:26;3.80;99.90
17346;DHT22;8790;53.590;10.002;2023-03-01T06:25:58;3.90;99.90
17346;DHT22;8790;53.590;10.002;2023-03-01T06:28:29;3.90;99.90
17346;DHT22;8790;53.590;10.002;2023-03-01T06:31:01;3.80;99.90
17346;DHT22;8790;53.590;10.002;2023-03-01T06:33:33;3.90;99.90
17346;DHT22;8790;53.590;10.002;2023-03-01T06:36:07;3.90;99.90
17346;DHT22;8790;53.590;10.002;2023-03-01T06:38:39;4.00;99.90
17346;DHT22;8790;53.590;10.002;2023-03-01T06:41:12;4.10;99.90
17346;DHT22;8790;53.590;10.002;2023-03-01T06:43:43;4.00;99.90
17346;DHT22;8790;53.590;10.002;2023-03-01T06:46:15;4.00;99.90
17346;DHT22;8790;53.590;10.002;2023-03-01T06:48:47;4.10;99.90
17346;DHT22;8790;53.590;10.002;2023-03-01T06:51:20;4.20;99.90
17346;DHT22;8790;53.590;10.002;2023-03-01T06:53:51;4.20;99.90
17346;DHT22;8790;53.590;10.002;2023-03-01T06:56:23;4.20;99.90
17346;DHT22;8790;53.590;10.002;2023-03-01T06:58:55;4.20;99.90
17346;DHT22;8790;53.590;10.002;2023-03-01T07:01:27;4.30;99.90
17346;DHT22;8790;53.590;10.002;2023-03-01T07:03:58;4.30;99.90
17346;DHT22;8790;53.590;10.002;2023-03-01T07:06:31;4.40;99.90
17346;DHT22;8790;53.590;10.002;2023-03-01T07:09:03;4.30;99.90
17346;DHT22;8790;53.590;10.002;2023-03-01T07:11:35;4.30;99.90
17346;DHT22;8790;53.590;10.002;2023-03-01T07:14:07;4.40;99.90
17346;DHT22;8790;53.590;10.002;2023-03-01T07:16:38;4.40;99.90
17346;DHT22;8790;53.590;10.002;2023-03-01T07:19:10;4.40;99.90
17346;DHT22;8790;53.590;10.002;2023-03-01T07:21:43;4.30;99.90
17346;DHT22;8790;53.590;10.002;2023-03-01T07:24:15;4.40;99.90
17346;DHT22;8790;53.590;10.002;2023-03-01T07:26:48;4.40;99.90
17346;DHT22;8790;53.590;10.002;2023-03-01T07:29:20;4.50;99.90
17346;DHT22;8790;53.590;10.002;2023-03-01T07:31:52;4.50;99.90
17346;DHT22;8790;53.590;10.002;2023-03-01T07:34:24;4.50;99.90
17346;DHT22;8790;53.590;10.002;2023-03-01T07:36:57;4.60;99.90
17346;DHT22;8790;53.590;10.002;2023-03-01T07:39:28;4.60;99.90
17346;DHT22;8790;53.590;10.002;2023-03-01T07:42:00;4.60;99.90
17346;DHT22;8790;53.590;10.002;2023-03-01T07:44:32;4.60;99.90
17346;DHT22;8790;53.590;10.002;2023-03-01T07:47:04;4.60;99.90
17346;DHT22;8790;53.590;10.002;2023-03-01T07:49:36;4.60;99.90
17346;DHT22;8790;53.590;10.002;2023-03-01T07:52:10;4.60;99.90
17346;DHT22;8790;53.590;10.002;2023-03-01T07:54:43;4.50;99.90
17346;DHT22;8790;53.590;10.002;2023-03-01T07:57:15;4.50;99.90
17346;DHT22;8790;53.590;10.002;2023-03-01T07:59:47;4.60;99.90
17346;DHT22;8790;53.590;10.002;2023-03-01T08:02:18;4.60;99.90
17346;DHT22;8790;53.590;10.002;2023-03-01T08:04:50;4.70;99.90
17346;DHT22;8790;53.590;10.002;2023-03-01T08:07:23;4.70;99.90
17346;DHT22;8790;53.590;10.002;2023-03-01T08:09:55;4.70;99.90
17346;DHT22;8790;53.590;10.002;2023-03-01T08:12:27;4.80;99.90
17346;DHT22;8790;53.590;10.002;2023-03-01T08:14:59;4.80;99.90
17346;DHT22;8790;53.590;10.002;2023-03-01T08:17:30;4.80;99.90
17346;DHT22;8790;53.590;10.002;2023-03-01T08:20:03;4.80;99.90
17346;DHT22;8790;53.590;10.002;2023-03-01T08:22:38;4.80;99.90
17346;DHT22;8790;53.590;10.002;2023-03-01T08:25:10;4.80;99.90
17346;DHT22;8790;53.590;10.002;2023-03-01T08:27:41;4.80;99.90
17346;DHT22;8790;53.590;10.002;2023-03-01T08:30:14;4.90;99.90
17346;DHT22;8790;53.590;10.002;2023-03-01T08:32:45;4.90;99.90
17346;DHT22;8790;53.590;10.002;2023-03-01T08:35:18;4.90;99.90
17346;DHT22;8790;53.590;10.002;2023-03-01T08:37:51;5.00;99.90
17346;DHT22;8790;53.590;10.002;2023-03-01T08:40:23;5.00;99.90
17346;DHT22;8790;53.590;10.002;2023-03-01T08:42:55;5.00;99.90
17346;DHT22;8790;53.590;10.002;2023-03-01T08:45:26;5.00;99.90
17346;DHT22;8790;53.590;10.002;2023-03-01T08:47:58;5.10;99.90
17346;DHT22;8790;53.590;10.002;2023-03-01T08:50:30;5.20;99.90
17346;DHT22;8790;53.590;10.002;2023-03-01T08:53:03;5.20;99.90
17346;DHT22;8790;53.590;10.002;2023-03-01T08:55:35;5.30;99.90
17346;DHT22;8790;53.590;10.002;2023-03-01T08:58:06;5.20;99.90
17346;DHT22;8790;53.590;10.002;2023-03-01T09:00:38;5.30;99.90
17346;DHT22;8790;53.590;10.002;2023-03-01T09:03:10;5.40;99.90
17346;DHT22;8790;53.590;10.002;2023-03-01T09:05:42;5.40;99.90
17346;DHT22;8790;53.590;10.002;2023-03-01T09:08:17;5.40;99.90
17346;DHT22;8790;53.590;10.002;2023-03-01T09:10:49;5.50;99.90
17346;DHT22;8790;53.590;10.002;2023-03-01T09:13:21;5.50;99.90
17346;DHT22;8790;53.590;10.002;2023-03-01T09:15:55;5.50;99.90
17346;DHT22;8790;53.590;10.002;2023-03-01T09:18:26;5.40;99.90
17346;DHT22;8790;53.590;10.002;2023-03-01T09:21:02;5.40;99.90
17346;DHT22;8790;53.590;10.002;2023-03-01T09:23:40;5.50;99.90
17346;DHT22;8790;53.590;10.002;2023-03-01T09:26:15;5.60;99.90
17346;DHT22;8790;53.590;10.002;2023-03-01T09:28:51;5.70;99.90
17346;DHT22;8790;53.590;10.002;2023-03-01T09:31:24;5.70;99.90
17346;DHT22;8790;53.590;10.002;2023-03-01T09:33:56;5.70;99.90
17346;DHT22;8790;53.590;10.002;2023-03-01T09:36:28;5.70;99.90
17346;DHT22;8790;53.590;10.002;2023-03-01T09:39:02;5.80;99.90
17346;DHT22;8790;53.590;10.002;2023-03-01T09:41:49;5.80;99.90
17346;DHT22;8790;53.590;10.002;2023-03-01T09:44:28;5.80;99.90
17346;DHT22;8790;53.590;10.002;2023-03-01T09:47:02;5.90;99.90
17346;DHT22;8790;53.590;10.002;2023-03-01T09:49:35;5.80;99.90
17346;DHT22;8790;53.590;10.002;2023-03-01T09:52:15;5.70;99.90
17346;DHT22;8790;53.590;10.002;2023-03-01T09:54:54;5.80;99.90
17346;DHT22;8790;53.590;10.002;2023-03-01T09:57:33;5.90;99.90
17346;DHT22;8790;53.590;10.002;2023-03-01T10:00:21;6.00;99.90
17346;DHT22;8790;53.590;10.002;2023-03-01T10:02:59;6.00;99.90
17346;DHT22;8790;53.590;10.002;2023-03-01T10:05:41;6.00;99.90
17346;DHT22;8790;53.590;10.002;2023-03-01T10:08:26;6.00;99.90
17346;DHT22;8790;53.590;10.002;2023-03-01T10:11:01;6.00;99.90
17346;DHT22;8790;53.590;10.002;2023-03-01T10:13:43;6.00;99.90
17346;DHT22;8790;53.590;10.002;2023-03-01T10:16:22;6.00;99.90
17346;DHT22;8790;53.590;10.002;2023-03-01T10:19:00;6.00;99.90
17346;DHT22;8790;53.590;10.002;2023-03-01T10:21:36;6.10;99.90
17346;DHT22;8790;53.590;10.002;2023-03-01T10:24:13;6.10;99.90
17346;DHT22;8790;53.590;10.002;2023-03-01T10:26:53;6.20;99.90
17346;DHT22;8790;53.590;10.002;2023-03-01T10:29:30;6.20;99.90
17346;DHT22;8790;53.590;10.002;2023-03-01T10:32:03;6.20;99.90
17346;DHT22;8790;53.590;10.002;2023-03-01T10:34:36;6.20;99.90
17346;DHT22;8790;53.590;10.002;2023-03-01T10:37:11;6.20;99.90
17346;DHT22;8790;53.590;10.002;2023-03-01T10:40:02;6.30;99.90
17346;DHT22;8790;53.590;10.002;2023-03-01T10:42:46;6.40;99.90
17346;DHT22;8790;53.590;10.002;2023-03-01T10:45:31;6.40;99.90
17346;DHT22;8790;53.590;10.002;2023-03-01T10:48:05;6.50;99.90
17346;DHT22;8790;53.590;10.002;2023-03-01T10:50:38;6.50;99.90
17346;DHT22;8790;53.590;10.002;2023-03-01T10:53:23;6.50;99.90
17346;DHT22;8790;53.590;10.002;2023-03-01T10:55:59;6.60;99.90
17346;DHT22;8790;53.590;10.002;2023-03-01T10:58:34;6.60;99.90
17346;DHT22;8790;53.590;10.002;2023-03-01T11:01:24;6.70;99.90
17346;DHT22;8790;53.590;10.002;2023-03-01T11:04:10;6.70;99.90
17346;DHT22;8790;53.590;10.002;2023-03-01T11:06:43;6.80;99.90
17346;DHT22;8790;53.590;10.002;2023-03-01T11:09:17;6.80;99.90
17346;DHT22;8790;53.590;10.002;2023-03-01T11:11:52;6.90;99.90
17346;DHT22;8790;53.590;10.002;2023-03-01T11:14:26;6.90;99.90
17346;DHT22;8790;53.590;10.002;2023-03-01T11:17:00;7.00;99.90
17346;DHT22;8790;53.590;10.002;2023-03-01T11:19:32;7.20;99.90
17346;DHT22;8790;53.590;10.002;2023-03-01T11:22:08;7.30;99.90
17346;DHT22;8790;53.590;10.002;2023-03-01T11:24:46;7.30;99.90
17346;DHT22;8790;53.590;10.002;2023-03-01T11:27:20;7.50;99.90
17346;DHT22;8790;53.590;10.002;2023-03-01T11:29:58;7.60;99.90
17346;DHT22;8790;53.590;10.002;2023-03-01T11:32:36;7.70;99.90
17346;DHT22;8790;53.590;10.002;2023-03-01T11:35:16;7.90;99.90
17346;DHT22;8790;53.590;10.002;2023-03-01T11:37:58;8.30;99.90
17346;DHT22;8790;53.590;10.002;2023-03-01T11:40:34;9.10;99.90
17346;DHT22;8790;53.590;10.002;2023-03-01T11:43:14;9.00;99.90
17346;DHT22;8790;53.590;10.002;2023-03-01T11:46:02;8.80;99.90
17346;DHT22;8790;53.590;10.002;2023-03-01T11:48:50;8.90;99.90
17346;DHT22;8790;53.590;10.002;2023-03-01T11:51:37;8.90;99.90
17346;DHT22;8790;53.590;10.002;2023-03-01T11:54:18;8.90;99.90
17346;DHT22;8790;53.590;10.002;2023-03-01T11:56:55;9.00;99.90
17346;DHT22;8790;53.590;10.002;2023-03-01T11:59:41;8.90;99.90
17346;DHT22;8790;53.590;10.002;2023-03-01T12:02:40;9.00;99.90
17346;DHT22;8790;53.590;10.002;2023-03-01T12:05:26;9.20;99.90
17346;DHT22;8790;53.590;10.002;2023-03-01T12:08:07;9.30;99.90
17346;DHT22;8790;53.590;10.002;2023-03-01T12:10:47;9.50;99.90
17346;DHT22;8790;53.590;10.002;2023-03-01T12:13:38;9.70;99.90
17346;DHT22;8790;53.590;10.002;2023-03-01T12:16:26;9.90;99.90
17346;DHT22;8790;53.590;10.002;2023-03-01T12:22:26;10.10;99.90
17346;DHT22;8790;53.590;10.002;2023-03-01T12:25:24;10.30;99.90
17346;DHT22;8790;53.590;10.002;2023-03-01T12:28:15;10.50;99.90
17346;DHT22;8790;53.590;10.002;2023-03-01T12:31:04;10.80;99.90
17346;DHT22;8790;53.590;10.002;2023-03-01T12:33:45;11.00;99.90
17346;DHT22;8790;53.590;10.002;2023-03-01T12:36:43;11.10;99.90
17346;DHT22;8790;53.590;10.002;2023-03-01T12:39:35;11.30;99.90
17346;DHT22;8790;53.590;10.002;2023-03-01T12:42:20;11.40;99.90
17346;DHT22;8790;53.590;10.002;2023-03-01T12:45:18;11.50;99.90
17346;DHT22;8790;53.590;10.002;2023-03-01T12:48:17;11.50;99.90
17346;DHT22;8790;53.590;10.002;2023-03-01T12:50:52;11.50;99.90
17346;DHT22;8790;53.590;10.002;2023-03-01T12:53:27;11.70;99.90
17346;DHT22;8790;53.590;10.002;2023-03-01T12:56:04;11.70;99.90
17346;DHT22;8790;53.590;10.002;2023-03-01T12:58:40;11.50;99.90
17346;DHT22;8790;53.590;10.002;2023-03-01T13:01:19;11.50;99.90
17346;DHT22;8790;53.590;10.002;2023-03-01T13:04:04;11.30;99.90
17346;DHT22;8790;53.590;10.002;2023-03-01T13:06:41;11.30;99.90
17346;DHT22;8790;53.590;10.002;2023-03-01T13:09:22;11.30;99.90
17346;DHT22;8790;53.590;10.002;2023-03-01T13:11:56;11.00;99.90
17346;DHT22;8790;53.590;10.002;2023-03-01T13:14:45;10.90;99.90
17346;DHT22;8790;53.590;10.002;2023-03-01T13:17:31;10.70;99.90
17346;DHT22;8790;53.590;10.002;2023-03-01T13:20:13;10.70;99.90
17346;DHT22;8790;53.590;10.002;2023-03-01T13:22:45;10.30;99.90
17346;DHT22;8790;53.590;10.002;2023-03-01T13:25:19;10.30;99.90
17346;DHT22;8790;53.590;10.002;2023-03-01T13:31:05;10.10;99.90
17346;DHT22;8790;53.590;10.002;2023-03-01T13:33:43;9.90;99.90
17346;DHT22;8790;53.590;10.002;2023-03-01T13:36:46;9.60;99.90
17346;DHT22;8790;53.590;10.002;2023-03-01T13:39:30;9.60;99.90
17346;DHT22;8790;53.590;10.002;2023-03-01T13:42:31;9.70;99.90
17346;DHT22;8790;53.590;10.002;2023-03-01T13:45:16;9.50;99.90
17346;DHT22;8790;53.590;10.002;2023-03-01T13:47:52;9.50;99.90
17346;DHT22;8790;53.590;10.002;2023-03-01T13:50:28;9.50;99.90
17346;DHT22;8790;53.590;10.002;2023-03-01T13:53:03;9.50;99.90
17346;DHT22;8790;53.590;10.002;2023-03-01T13:55:40;9.50;99.90
17346;DHT22;8790;53.590;10.002;2023-03-01T13:58:18;9.60;99.90
17346;DHT22;8790;53.590;10.002;2023-03-01T14:01:00;9.60;99.90
17346;DHT22;8790;53.590;10.002;2023-03-01T14:03:33;9.40;99.90
17346;DHT22;8790;53.590;10.002;2023-03-01T14:06:08;9.20;99.90
17346;DHT22;8790;53.590;10.002;2023-03-01T14:08:40;9.30;99.90
17346;DHT22;8790;53.590;10.002;2023-03-01T14:11:52;9.40;99.90
17346;DHT22;8790;53.590;10.002;2023-03-01T14:14:42;9.40;99.90
17346;DHT22;8790;53.590;10.002;2023-03-01T14:17:48;9.40;99.90
17346;DHT22;8790;53.590;10.002;2023-03-01T14:20:26;9.50;99.90
17346;DHT22;8790;53.590;10.002;2023-03-01T14:23:00;9.60;99.90
17346;DHT22;8790;53.590;10.002;2023-03-01T14:25:34;9.60;99.90
17346;DHT22;8790;53.590;10.002;2023-03-01T14:28:15;9.70;99.90
17346;DHT22;8790;53.590;10.002;2023-03-01T14:30:49;9.60;99.90
17346;DHT22;8790;53.590;10.002;2023-03-01T14:33:25;9.70;99.90
17346;DHT22;8790;53.590;10.002;2023-03-01T14:35:59;9.80;99.90
17346;DHT22;8790;53.590;10.002;2023-03-01T14:38:33;9.90;99.90
17346;DHT22;8790;53.590;10.002;2023-03-01T14:41:08;9.80;99.90
17346;DHT22;8790;53.590;10.002;2023-03-01T14:43:42;9.80;99.90
17346;DHT22;8790;53.590;10.002;2023-03-01T14:46:20;9.80;99.90
17346;DHT22;8790;53.590;10.002;2023-03-01T14:48:56;9.80;99.90
17346;DHT22;8790;53.590;10.002;2023-03-01T14:51:30;9.80;99.90
17346;DHT22;8790;53.590;10.002;2023-03-01T14:54:02;10.00;99.90
17346;DHT22;8790;53.590;10.002;2023-03-01T14:56:43;10.10;99.90
17346;DHT22;8790;53.590;10.002;2023-03-01T14:59:19;10.00;99.90
17346;DHT22;8790;53.590;10.002;2023-03-01T15:01:55;9.90;99.90
17346;DHT22;8790;53.590;10.002;2023-03-01T15:04:29;9.90;99.90
17346;DHT22;8790;53.590;10.002;2023-03-01T15:07:02;9.90;99.90
17346;DHT22;8790;53.590;10.002;2023-03-01T15:09:37;9.90;99.90
17346;DHT22;8790;53.590;10.002;2023-03-01T15:12:38;10.00;99.90
17346;DHT22;8790;53.590;10.002;2023-03-01T15:15:35;10.00;99.90
17346;DHT22;8790;53.590;10.002;2023-03-01T15:18:18;10.00;99.90
17346;DHT22;8790;53.590;10.002;2023-03-01T15:20:52;10.00;99.90
17346;DHT22;8790;53.590;10.002;2023-03-01T15:23:25;10.00;99.90
17346;DHT22;8790;53.590;10.002;2023-03-01T15:25:58;10.10;99.90
17346;DHT22;8790;53.590;10.002;2023-03-01T15:28:33;10.00;99.90
17346;DHT22;8790;53.590;10.002;2023-03-01T15:31:15;10.10;99.90
17346;DHT22;8790;53.590;10.002;2023-03-01T15:33:50;9.90;99.90
17346;DHT22;8790;53.590;10.002;2023-03-01T15:36:39;9.90;99.90
17346;DHT22;8790;53.590;10.002;2023-03-01T15:39:33;9.90;99.90
17346;DHT22;8790;53.590;10.002;2023-03-01T15:42:09;9.70;99.90
17346;DHT22;8790;53.590;10.002;2023-03-01T15:44:41;9.50;99.90
17346;DHT22;8790;53.590;10.002;2023-03-01T15:47:29;9.50;99.90
17346;DHT22;8790;53.590;10.002;2023-03-01T15:50:01;9.50;99.90
17346;DHT22;8790;53.590;10.002;2023-03-01T15:52:36;9.40;99.90
17346;DHT22;8790;53.590;10.002;2023-03-01T15:55:16;9.30;99.90
17346;DHT22;8790;53.590;10.002;2023-03-01T15:57:49;9.30;99.90
17346;DHT22;8790;53.590;10.002;2023-03-01T16:00:21;9.40;99.90
17346;DHT22;8790;53.590;10.002;2023-03-01T16:02:53;9.40;99.90
17346;DHT22;8790;53.590;10.002;2023-03-01T16:05:27;9.30;99.90
17346;DHT22;8790;53.590;10.002;2023-03-01T16:08:01;9.10;99.90
17346;DHT22;8790;53.590;10.002;2023-03-01T16:10:33;9.10;99.90
17346;DHT22;8790;53.590;10.002;2023-03-01T16:13:05;9.10;99.90
17346;DHT22;8790;53.590;10.002;2023-03-01T16:15:38;9.10;99.90
17346;DHT22;8790;53.590;10.002;2023-03-01T16:18:10;9.00;99.90
17346;DHT22;8790;53.590;10.002;2023-03-01T16:20:42;8.90;99.90
17346;DHT22;8790;53.590;10.002;2023-03-01T16:23:15;8.80;99.90
17346;DHT22;8790;53.590;10.002;2023-03-01T16:25:47;8.80;99.90
17346;DHT22;8790;53.590;10.002;2023-03-01T16:28:19;8.70;99.90
17346;DHT22;8790;53.590;10.002;2023-03-01T16:30:50;8.60;99.90
17346;DHT22;8790;53.590;10.002;2023-03-01T16:33:22;8.50;99.90
17346;DHT22;8790;53.590;10.002;2023-03-01T16:35:54;8.50;99.90
17346;DHT22;8790;53.590;10.002;2023-03-01T16:38:27;8.40;99.90
17346;DHT22;8790;53.590;10.002;2023-03-01T16:40:59;8.40;99.90
17346;DHT22;8790;53.590;10.002;2023-03-01T16:43:31;8.30;99.90
17346;DHT22;8790;53.590;10.002;2023-03-01T16:46:10;8.20;99.90